createdAt,value
2023-02-16T00:01:50.867Z,19.50
2023-02-16T00:04:24.163Z,19.55
2023-02-16T00:06:50.994Z,21.05
2023-02-16T00:09:17.409Z,20.50
2023-02-16T00:12:02.430Z,19.60
2023-02-16T00:14:28.588Z,20.42
2023-02-16T06:08:46.938Z,19.25
2023-02-16T06:11:31.422Z,20.00
2023-02-16T06:13:58.747Z,18.75
2023-02-16T06:16:26.677Z,18.45
2023-02-16T06:18:53.451Z,19.25
2023-02-16T06:21:20.416Z,20.35
2023-02-16T06:23:46.747Z,20.48
2023-02-16T06:26:12.717Z,19.75
2023-02-16T06:28:38.507Z,19.80
2023-02-16T06:31:04.615Z,20.27
2023-02-16T06:33:30.686Z,20.88
2023-02-16T06:35:56.648Z,17.88
2023-02-16T06:38:22.562Z,19.40
2023-02-16T06:40:54.044Z,18.88
2023-02-16T06:43:20.509Z,18.67
2023-02-16T06:45:47.216Z,22.05
2023-02-16T06:48:13.565Z,19.10
2023-02-16T06:50:39.413Z,17.65
2023-02-16T06:53:05.754Z,19.15
2023-02-16T06:55:35.911Z,20.33
2023-02-16T06:58:05.405Z,18.48
2023-02-16T07:00:31.732Z,17.95
2023-02-16T07:02:57.738Z,17.85
2023-02-16T07:05:24.182Z,18.85
2023-02-16T07:07:50.290Z,17.90
2023-02-16T07:10:16.167Z,17.60
2023-02-16T07:12:41.980Z,16.65
2023-02-16T07:15:08.536Z,16.63
2023-02-16T07:17:34.334Z,17.98
2023-02-16T07:20:00.264Z,17.17
2023-02-16T07:22:26.093Z,17.38
2023-02-16T07:24:51.938Z,17.88
2023-02-16T07:27:17.752Z,19.00
2023-02-16T07:29:46.004Z,17.15
2023-02-16T07:32:11.894Z,16.85
2023-02-16T07:34:37.732Z,19.05
2023-02-16T07:37:04.486Z,18.90
2023-02-16T07:39:30.320Z,18.25
2023-02-16T07:41:56.106Z,17.50
2023-02-16T07:44:21.940Z,18.55
2023-02-16T07:46:47.740Z,18.58
2023-02-16T07:49:13.581Z,18.17
2023-02-16T07:51:39.904Z,19.05
2023-02-16T07:54:06.298Z,18.23
2023-02-16T07:56:34.158Z,19.02
2023-02-16T07:59:01.379Z,19.13
2023-02-16T08:01:29.172Z,18.55
2023-02-16T08:03:55.558Z,18.70
2023-02-16T08:06:22.298Z,18.50
2023-02-16T08:08:48.322Z,18.65
2023-02-16T08:11:23.187Z,17.65
2023-02-16T08:13:49.744Z,18.45
2023-02-16T08:16:18.602Z,17.90
2023-02-16T08:18:44.597Z,18.65
2023-02-16T08:21:15.467Z,17.35
2023-02-16T08:23:46.771Z,17.30
2023-02-16T08:26:17.944Z,17.27
2023-02-16T08:28:45.937Z,17.70
2023-02-16T08:31:13.530Z,16.52
2023-02-16T08:33:39.619Z,17.73
2023-02-16T08:36:08.817Z,16.73
2023-02-16T08:38:35.296Z,17.02
2023-02-16T08:41:01.196Z,17.85
2023-02-16T08:43:26.953Z,18.15
2023-02-16T08:45:53.122Z,16.90
2023-02-16T08:48:19.213Z,17.05
2023-02-16T08:50:46.421Z,18.10
2023-02-16T08:53:14.588Z,17.17
2023-02-16T08:55:40.473Z,18.63
2023-02-16T08:58:06.470Z,18.45
2023-02-16T09:00:34.882Z,17.75
2023-02-16T09:03:01.467Z,17.17
2023-02-16T09:05:30.389Z,17.67
2023-02-16T09:07:56.911Z,19.00
2023-02-16T09:10:22.798Z,17.35
2023-02-16T09:12:49.170Z,18.25
2023-02-16T09:15:15.776Z,18.33
2023-02-16T09:17:42.245Z,18.25
2023-02-16T09:20:09.354Z,18.67
2023-02-16T09:22:35.317Z,17.77
2023-02-16T09:25:01.113Z,17.67
2023-02-16T09:27:26.913Z,17.88
2023-02-16T09:29:52.921Z,17.35
2023-02-16T09:32:18.823Z,16.23
2023-02-16T09:34:45.489Z,18.25
2023-02-16T09:37:11.357Z,16.35
2023-02-16T09:39:37.105Z,15.80
2023-02-16T09:42:27.731Z,16.52
2023-02-16T09:45:00.616Z,17.08
2023-02-16T09:47:33.964Z,17.10
2023-02-16T09:50:04.440Z,16.98
2023-02-16T09:52:41.833Z,17.45
2023-02-16T09:55:12.620Z,17.02
2023-02-16T09:57:41.362Z,15.60
2023-02-16T10:00:31.562Z,17.85
2023-02-16T10:03:15.331Z,15.98
2023-02-16T10:05:58.032Z,16.23
2023-02-16T10:08:29.178Z,16.15
2023-02-16T10:11:27.821Z,15.23
2023-02-16T10:13:59.150Z,16.38
2023-02-16T10:16:34.199Z,14.50
2023-02-16T10:19:07.424Z,15.38
2023-02-16T10:21:33.412Z,14.48
2023-02-16T10:24:06.928Z,15.80
2023-02-16T10:26:35.978Z,17.10
2023-02-16T10:29:07.708Z,15.35
2023-02-16T10:31:40.173Z,15.85
2023-02-16T10:34:45.096Z,15.82
2023-02-16T10:37:23.273Z,15.93
2023-02-16T10:40:31.449Z,16.73
2023-02-16T10:43:10.586Z,16.52
2023-02-16T10:45:49.639Z,16.38
2023-02-16T10:48:20.320Z,16.40
2023-02-16T10:50:57.906Z,16.38
2023-02-16T10:53:46.950Z,17.10
2023-02-16T10:56:40.792Z,16.27
2023-02-16T10:59:30.231Z,17.48
2023-02-16T11:01:58.415Z,18.05
2023-02-16T11:04:33.429Z,18.42
2023-02-16T11:07:13.457Z,18.05
2023-02-16T11:09:41.301Z,18.98
2023-02-16T11:12:26.345Z,18.98
2023-02-16T11:15:19.119Z,17.53
2023-02-16T11:17:59.269Z,18.55
2023-02-16T11:20:47.026Z,19.05
2023-02-16T11:23:27.727Z,18.77
2023-02-16T11:26:11.034Z,18.80
2023-02-16T11:28:43.264Z,18.40
2023-02-16T11:31:09.345Z,19.15
2023-02-16T11:33:37.297Z,18.80
2023-02-16T11:36:17.957Z,19.25
2023-02-16T11:38:59.312Z,19.67
2023-02-16T11:41:26.544Z,17.77
2023-02-16T11:43:52.852Z,19.80
2023-02-16T11:46:22.223Z,19.13
2023-02-16T11:48:48.911Z,20.40
2023-02-16T11:51:27.768Z,20.05
2023-02-16T11:54:03.890Z,19.35
2023-02-16T11:56:32.923Z,20.55
2023-02-16T11:59:20.999Z,19.10
2023-02-16T12:02:33.421Z,19.33
2023-02-16T12:05:38.549Z,18.40
2023-02-16T12:08:32.861Z,18.38
2023-02-16T12:11:27.843Z,17.45
2023-02-16T12:14:11.837Z,17.52
2023-02-16T12:16:48.114Z,17.38
2023-02-16T12:19:32.564Z,17.35
2023-02-16T12:22:22.294Z,18.08
2023-02-16T12:25:03.468Z,19.88
2023-02-16T12:27:55.176Z,18.10
2023-02-16T12:30:52.101Z,19.02
2023-02-16T12:33:36.502Z,18.00
2023-02-16T12:36:11.079Z,19.02
2023-02-16T12:38:46.022Z,18.88
2023-02-16T12:41:27.776Z,18.88
2023-02-16T12:43:59.606Z,17.75
2023-02-16T12:46:42.223Z,18.02
2023-02-16T12:49:24.568Z,18.45
2023-02-16T12:51:59.142Z,18.38
2023-02-16T12:54:43.918Z,20.15
2023-02-16T12:57:15.125Z,18.95
2023-02-16T12:59:56.768Z,19.08
2023-02-16T13:02:46.369Z,19.17
2023-02-16T13:05:30.481Z,18.20
2023-02-16T13:08:11.960Z,19.52
2023-02-16T13:10:54.063Z,19.33
2023-02-16T13:13:28.804Z,19.80
2023-02-16T13:16:04.585Z,20.90
2023-02-16T13:18:34.661Z,19.58
2023-02-16T13:21:10.414Z,19.92
2023-02-16T13:23:59.606Z,19.52
2023-02-16T13:26:41.136Z,20.40
2023-02-16T13:29:22.099Z,19.25
2023-02-16T13:32:00.036Z,18.55
2023-02-16T13:34:46.614Z,18.70
2023-02-16T13:37:33.770Z,18.75
2023-02-16T13:40:15.143Z,20.10
2023-02-16T13:43:08.290Z,18.33
2023-02-16T13:45:40.429Z,18.80
2023-02-16T13:48:15.646Z,18.23
2023-02-16T13:50:42.175Z,18.45
2023-02-16T13:53:16.473Z,18.52
2023-02-16T13:55:42.418Z,20.13
2023-02-16T13:58:14.141Z,19.77
2023-02-16T14:00:44.376Z,19.55
2023-02-16T14:03:31.418Z,20.30
2023-02-16T14:06:31.648Z,20.98
2023-02-16T14:09:15.803Z,18.98
2023-02-16T14:11:58.645Z,19.73
2023-02-16T14:14:32.143Z,19.42
2023-02-16T14:17:22.754Z,17.88
2023-02-16T14:19:48.615Z,17.55
2023-02-16T14:22:18.940Z,19.92
2023-02-16T14:24:59.064Z,18.33
2023-02-16T14:27:42.422Z,17.35
2023-02-16T14:30:44.637Z,17.05
2023-02-16T14:33:16.602Z,16.02
2023-02-16T14:36:03.940Z,16.00
2023-02-16T14:38:33.998Z,17.13
2023-02-16T14:41:03.525Z,16.10
2023-02-16T14:43:29.402Z,17.42
2023-02-16T14:46:10.849Z,16.98
2023-02-16T14:49:14.183Z,15.45
2023-02-16T14:51:53.495Z,16.38
2023-02-16T14:54:40.601Z,15.70
2023-02-16T14:57:33.057Z,17.25
2023-02-16T15:00:01.844Z,16.15
2023-02-16T15:02:33.546Z,17.58
2023-02-16T15:05:16.989Z,15.25
2023-02-16T15:07:45.817Z,16.25
2023-02-16T15:10:17.952Z,16.75
2023-02-16T15:12:44.066Z,16.35
2023-02-16T15:15:18.931Z,18.40
2023-02-16T15:17:47.271Z,16.15
2023-02-16T15:20:26.907Z,16.00
2023-02-16T15:22:56.247Z,17.17
2023-02-16T15:25:29.479Z,16.80
2023-02-16T15:28:10.182Z,17.40
2023-02-16T15:30:40.044Z,15.85
2023-02-16T15:33:22.339Z,17.00
2023-02-16T15:35:53.706Z,16.45
2023-02-16T15:38:23.385Z,16.25
2023-02-16T15:40:54.744Z,16.90
2023-02-16T15:43:37.746Z,15.75
2023-02-16T15:46:07.402Z,16.05
2023-02-16T15:48:37.634Z,14.80
2023-02-16T15:51:14.858Z,16.70
2023-02-16T15:53:52.285Z,15.05
2023-02-16T15:56:30.569Z,15.25
2023-02-16T15:59:00.913Z,18.15
2023-02-16T16:01:33.517Z,15.35
2023-02-16T16:04:21.157Z,15.20
2023-02-16T16:06:50.040Z,15.27
2023-02-16T16:09:25.469Z,16.20
2023-02-16T16:11:55.250Z,15.60
2023-02-16T16:14:22.164Z,15.60
2023-02-16T16:16:48.731Z,14.73
2023-02-16T16:19:20.558Z,14.70
2023-02-16T16:21:50.639Z,14.95
2023-02-16T16:24:39.143Z,14.15
2023-02-16T16:27:12.330Z,14.18
2023-02-16T16:29:41.508Z,14.40
2023-02-16T16:32:23.026Z,14.55
2023-02-16T16:34:49.597Z,14.05
2023-02-16T16:37:27.602Z,14.00
2023-02-16T16:40:03.469Z,13.45
2023-02-16T16:42:31.803Z,14.48
2023-02-16T16:45:00.978Z,14.93
2023-02-16T16:47:32.371Z,13.95
2023-02-16T16:50:09.792Z,14.20
2023-02-16T16:52:42.953Z,15.35
2023-02-16T16:55:20.939Z,15.35
2023-02-16T16:58:10.092Z,15.32
2023-02-16T17:00:40.321Z,14.73
2023-02-16T17:03:08.212Z,13.60
2023-02-16T17:05:35.171Z,14.35
2023-02-16T17:08:01.231Z,15.73
2023-02-16T17:10:27.152Z,15.23
2023-02-16T17:12:56.256Z,14.38
2023-02-16T17:15:44.886Z,13.60
2023-02-16T17:18:16.469Z,14.20
2023-02-16T17:20:42.841Z,14.98
2023-02-16T17:23:13.693Z,14.43
2023-02-16T17:25:40.048Z,13.90
2023-02-16T17:28:06.510Z,16.27
2023-02-16T17:30:32.682Z,15.45
2023-02-16T17:32:59.342Z,14.70
2023-02-16T17:35:25.491Z,15.18
2023-02-16T17:37:51.289Z,16.77
2023-02-16T17:40:19.891Z,16.33
2023-02-16T17:42:46.430Z,15.18
2023-02-16T17:45:14.732Z,14.73
2023-02-16T17:47:45.906Z,14.77
2023-02-16T17:50:14.047Z,15.80
2023-02-16T17:52:43.497Z,15.48
2023-02-16T17:55:10.483Z,16.42
2023-02-16T17:57:36.920Z,16.38
2023-02-16T18:00:05.396Z,16.67
2023-02-16T18:02:31.355Z,16.65
2023-02-16T18:04:57.247Z,15.68
2023-02-16T18:07:23.088Z,16.75
2023-02-16T18:09:49.012Z,16.48
2023-02-16T18:12:14.917Z,15.93
2023-02-16T18:14:40.857Z,17.38
2023-02-16T18:17:07.430Z,16.02
2023-02-16T18:19:33.497Z,15.65
2023-02-16T18:22:00.737Z,16.63
2023-02-16T18:24:26.601Z,15.88
2023-02-16T18:26:54.056Z,15.48
2023-02-16T18:29:19.913Z,17.05
2023-02-16T18:31:46.954Z,16.58
2023-02-16T18:34:13.241Z,16.15
2023-02-16T18:36:39.311Z,15.90
2023-02-16T18:39:06.507Z,17.42
2023-02-16T18:41:33.082Z,17.45
2023-02-16T18:43:59.039Z,16.60
2023-02-16T18:46:25.098Z,16.27
2023-02-16T18:48:51.015Z,17.08
2023-02-16T18:51:17.124Z,17.95
2023-02-16T18:53:44.062Z,17.30
2023-02-16T18:56:11.537Z,17.23
2023-02-16T18:58:37.872Z,16.42
2023-02-16T19:01:25.171Z,16.73
2023-02-16T19:03:51.120Z,18.20
2023-02-16T19:06:17.104Z,16.60
2023-02-16T19:08:43.014Z,17.80
2023-02-16T19:11:08.838Z,17.40
2023-02-16T19:13:34.872Z,16.55
2023-02-16T19:16:00.787Z,17.77
2023-02-16T19:18:28.484Z,16.58
2023-02-16T19:20:54.625Z,17.40
2023-02-16T19:23:20.685Z,17.42
2023-02-16T19:25:46.464Z,15.98
2023-02-16T19:28:12.278Z,17.58
2023-02-16T19:30:38.373Z,16.73
2023-02-16T19:33:04.728Z,17.42
2023-02-16T19:35:30.631Z,16.08
2023-02-16T19:37:56.664Z,15.52
2023-02-16T19:40:22.531Z,17.17
2023-02-16T19:42:48.845Z,16.00
2023-02-16T19:45:14.717Z,15.43
2023-02-16T19:47:40.650Z,15.02
2023-02-16T19:50:06.901Z,16.58
2023-02-16T19:52:32.754Z,15.15
2023-02-16T19:54:58.588Z,15.90
2023-02-16T19:57:24.465Z,15.38
2023-02-16T19:59:50.261Z,16.00
2023-02-16T20:02:16.373Z,15.23
2023-02-16T20:04:45.124Z,15.10
2023-02-16T20:07:10.977Z,16.15
2023-02-16T20:09:36.851Z,15.60
2023-02-16T20:12:03.981Z,14.70
2023-02-16T20:14:30.040Z,14.60
2023-02-16T20:16:55.923Z,15.32
2023-02-16T20:19:21.818Z,14.98
2023-02-16T20:21:47.636Z,14.07
2023-02-16T20:24:14.138Z,14.95
2023-02-16T20:26:43.930Z,15.38
2023-02-16T20:29:12.376Z,14.02
2023-02-16T20:31:41.948Z,13.95
2023-02-16T20:34:08.252Z,14.68
2023-02-16T20:36:35.204Z,14.60
2023-02-16T20:39:01.200Z,14.68
2023-02-16T20:41:27.374Z,15.48
2023-02-16T20:43:53.621Z,16.15
2023-02-16T20:46:22.709Z,16.25
2023-02-16T20:48:49.496Z,18.30
2023-02-16T20:51:16.296Z,18.02
2023-02-16T20:53:42.691Z,17.38
2023-02-16T20:56:16.004Z,17.75
2023-02-16T20:58:43.764Z,17.17
2023-02-16T21:01:20.668Z,19.20
2023-02-16T21:03:47.484Z,18.58
2023-02-16T21:06:14.861Z,19.77
2023-02-16T21:08:40.884Z,19.30
2023-02-16T21:11:07.299Z,19.35
2023-02-16T21:13:33.628Z,20.23
2023-02-16T21:15:59.700Z,19.42
2023-02-16T21:18:25.755Z,18.67
2023-02-16T21:20:51.769Z,18.88
2023-02-16T21:23:18.037Z,18.88
2023-02-16T21:25:44.213Z,19.38
2023-02-16T21:28:10.166Z,19.13
2023-02-16T21:30:40.212Z,19.40
2023-02-16T21:33:06.106Z,18.25
2023-02-16T21:35:32.656Z,18.58
2023-02-16T21:37:58.694Z,17.90
2023-02-16T21:40:43.514Z,17.67
2023-02-16T21:43:10.389Z,18.80
2023-02-16T21:45:36.314Z,20.40
2023-02-16T21:48:20.550Z,18.95
2023-02-16T21:50:46.679Z,15.65
2023-02-16T21:53:12.674Z,15.38
2023-02-16T21:55:57.513Z,17.52
2023-02-16T21:58:26.076Z,15.35
2023-02-16T22:00:52.629Z,15.13
2023-02-16T22:03:19.705Z,14.27
2023-02-16T22:05:45.887Z,13.90
2023-02-16T22:08:14.368Z,13.88
2023-02-16T22:10:40.708Z,13.38
2023-02-16T22:13:07.961Z,12.48
2023-02-16T22:15:36.582Z,12.55
2023-02-16T22:18:05.556Z,11.43
2023-02-16T22:20:31.769Z,12.10
2023-02-16T22:22:57.542Z,12.10
2023-02-16T22:25:23.453Z,11.35
2023-02-16T22:27:49.363Z,10.40
2023-02-16T22:30:15.361Z,10.95
2023-02-16T22:32:41.144Z,10.63
2023-02-16T22:35:07.212Z,11.32
2023-02-16T22:37:33.364Z,10.75
2023-02-16T22:39:59.427Z,10.95
2023-02-16T22:42:25.664Z,11.55
2023-02-16T22:44:51.519Z,10.30
2023-02-16T22:47:17.698Z,11.02
2023-02-16T22:49:43.558Z,10.98
2023-02-16T22:52:10.635Z,12.00
2023-02-16T22:54:37.197Z,12.07
2023-02-16T22:57:03.343Z,11.48
2023-02-16T22:59:29.158Z,11.18
2023-02-16T23:01:54.996Z,12.60
2023-02-16T23:04:20.879Z,12.27
2023-02-16T23:06:46.816Z,12.75
2023-02-16T23:09:16.348Z,13.13
2023-02-16T23:11:42.665Z,14.10
2023-02-16T23:14:15.463Z,15.18
2023-02-16T23:16:50.556Z,14.90
2023-02-16T23:19:19.732Z,16.55
2023-02-16T23:21:46.800Z,16.02
2023-02-16T23:24:16.520Z,16.17
2023-02-16T23:26:42.586Z,17.17
2023-02-16T23:29:08.979Z,18.63
2023-02-16T23:31:37.111Z,18.05
2023-02-16T23:34:04.411Z,18.85
2023-02-16T23:36:32.005Z,19.17
2023-02-16T23:39:04.039Z,19.27
2023-02-16T23:41:29.846Z,19.17
2023-02-16T23:43:55.876Z,20.38
2023-02-16T23:46:22.630Z,21.20
2023-02-16T23:48:48.882Z,22.05
2023-02-16T23:51:14.702Z,21.85
2023-02-16T23:53:40.518Z,22.23
2023-02-16T23:56:08.211Z,23.30
2023-02-16T23:58:40.490Z,23.70
